首页
METAR-TAF:

METAR-TAF

机场 :

图兹拉国际机场

图兹拉, 波斯尼亚和黑塞哥维那

纬度: 44-33N, 经度: 018-42E, 海拔: 306米

当前天气观测

该预报发布于42分钟前的00:00 UTC
风速2节,风向多变
温度 3°C
湿度 100%
气压 1020 hPa
能見度: 0050

METAR: LQTZ 080000Z VRB02KT 0050 R09/0200N FG VV001 03/03 Q1020

时间: 01:42 (00:42 UTC)

预报

该预报发布于1小时和42分钟前的23:00 UTC
预报有效从08日的 00点(UTC)到 08日的 24点(UTC)
风速2节,风向多变
能見度: 0100
层高于100英尺
成为
从 08日的 09点(UTC)到 08日的 11点(UTC)
能見度: 3000
多云层高于500英尺
轻雾
成为
从 08日的 11点(UTC)到 08日的 13点(UTC)
能見度: 7000
成为
从 08日的 15点(UTC)到 08日的 18点(UTC)
能見度: 2000
轻雾
几率 30%
从 08日的 19点(UTC)到 08日的 24点(UTC)
能見度: 0200
层高于200英尺

TAF: LQTZ 072300Z 0800/0824 VRB02KT 0100 FG VV001 TX09/0813Z TNM00/0806Z BECMG 0809/0811 3000 BR BKN005 BECMG 0811/0813 7000 NSW NSC BECMG 0815/0818 2000 BR PROB30 0819/0824 0200 FG VV002

超过4000个机场的气象观测和天气预报(METAR&TAF报告)。

可查询的气象台以黄色和红色小点在地图上表示。

将鼠标移到小点上方,可查看气象台名称。

然后点击查看天气观测和预报。

如需切换地图:点击带黑十字的绿色按钮放大地图;点击带横线的绿色按钮缩小地图;或者点击绿色箭头查看邻近地区的地图。


METAR-TAF: